createdAt,value
2022-12-10T00:01:07.985Z,25.93
2022-12-10T00:03:34.718Z,26.67
2022-12-10T00:06:02.460Z,25.17
2022-12-10T00:08:28.988Z,21.90
2022-12-10T00:10:55.450Z,24.13
2022-12-10T00:13:21.956Z,25.90
2022-12-10T00:15:48.440Z,23.97
2022-12-10T00:18:15.501Z,24.70
2022-12-10T00:20:41.969Z,24.90
2022-12-10T00:23:08.488Z,23.53
2022-12-10T00:25:34.969Z,26.03
2022-12-10T00:28:01.433Z,25.27
2022-12-10T00:30:27.910Z,21.93
2022-12-10T00:32:54.379Z,20.83
2022-12-10T00:35:20.886Z,20.27
2022-12-10T00:37:47.366Z,21.47
2022-12-10T00:40:13.840Z,20.37
2022-12-10T00:42:40.283Z,19.60
2022-12-10T00:45:06.979Z,17.83
2022-12-10T00:47:34.292Z,18.87
2022-12-10T00:50:00.812Z,16.97
2022-12-10T00:52:27.294Z,19.60
2022-12-10T00:54:53.823Z,20.17
2022-12-10T00:57:20.311Z,20.53
2022-12-10T00:59:46.803Z,18.47
2022-12-10T01:02:13.364Z,18.27
2022-12-10T01:04:39.860Z,16.23
2022-12-10T01:07:11.045Z,21.60
2022-12-10T01:09:37.837Z,21.20
2022-12-10T01:12:04.395Z,19.27
2022-12-10T01:14:31.539Z,17.30
2022-12-10T01:16:59.093Z,17.30
2022-12-10T01:19:25.666Z,18.10
2022-12-10T01:21:52.642Z,19.33
2022-12-10T01:24:19.128Z,19.60
2022-12-10T01:26:45.581Z,20.23
2022-12-10T01:29:12.096Z,20.80
2022-12-10T01:31:38.812Z,18.43
2022-12-10T01:34:06.621Z,19.97
2022-12-10T01:36:37.135Z,22.83
2022-12-10T01:39:04.442Z,19.00
2022-12-10T01:41:35.197Z,18.27
2022-12-10T01:44:01.867Z,23.27
2022-12-10T01:46:32.352Z,18.57
2022-12-10T01:48:59.245Z,19.40
2022-12-10T01:51:26.241Z,22.77
2022-12-10T01:53:52.730Z,22.00
2022-12-10T01:56:19.538Z,19.33
2022-12-10T01:58:46.099Z,19.70
2022-12-10T02:01:17.185Z,19.40
2022-12-10T02:03:58.841Z,16.10
2022-12-10T02:06:25.326Z,18.67
2022-12-10T02:08:58.344Z,21.60
2022-12-10T02:11:26.088Z,19.13
2022-12-10T02:13:52.604Z,17.33
2022-12-10T02:16:20.202Z,18.50
2022-12-10T02:18:51.148Z,16.97
2022-12-10T02:21:18.459Z,18.43
2022-12-10T02:23:46.369Z,17.80
2022-12-10T02:26:20.096Z,17.03
2022-12-10T02:28:46.568Z,16.20
2022-12-10T02:31:13.177Z,18.10
2022-12-10T02:33:40.909Z,17.63
2022-12-10T02:36:07.519Z,22.23
2022-12-10T02:38:34.533Z,20.80
2022-12-10T02:41:02.664Z,22.47
2022-12-10T02:43:29.106Z,20.10
2022-12-10T02:45:56.386Z,21.40
2022-12-10T02:48:22.905Z,21.40
2022-12-10T02:50:49.392Z,19.03
2022-12-10T02:53:15.930Z,22.47
2022-12-10T02:55:45.502Z,22.50
2022-12-10T02:58:17.231Z,19.23
2022-12-10T03:00:46.616Z,19.13
2022-12-10T03:03:13.302Z,19.40
2022-12-10T03:05:45.734Z,17.27
2022-12-10T03:08:20.116Z,16.67
2022-12-10T03:10:52.320Z,16.03
2022-12-10T03:13:18.897Z,15.33
2022-12-10T03:15:45.391Z,16.37
2022-12-10T03:18:11.893Z,16.37
2022-12-10T03:20:39.284Z,14.43
2022-12-10T03:23:06.463Z,16.50
2022-12-10T03:25:33.009Z,15.93
2022-12-10T03:28:00.006Z,15.43
2022-12-10T03:30:26.634Z,13.47
2022-12-10T03:32:53.322Z,13.10
2022-12-10T03:35:20.376Z,13.43
2022-12-10T03:37:46.888Z,14.83
2022-12-10T03:40:13.686Z,14.80
2022-12-10T03:42:40.242Z,15.07
2022-12-10T03:45:06.924Z,14.47
2022-12-10T03:47:33.433Z,14.00
2022-12-10T03:49:59.903Z,14.70
2022-12-10T03:52:26.380Z,13.93
2022-12-10T03:54:53.146Z,17.70
2022-12-10T03:57:19.613Z,17.33
2022-12-10T03:59:46.104Z,18.00
2022-12-10T04:02:12.637Z,20.43
2022-12-10T04:04:39.166Z,19.83
2022-12-10T04:07:05.697Z,19.10
2022-12-10T04:09:32.185Z,15.87
2022-12-10T04:11:58.976Z,18.03
2022-12-10T04:14:44.145Z,16.93
2022-12-10T04:17:10.730Z,18.03
2022-12-10T04:19:37.434Z,16.60
2022-12-10T04:22:22.495Z,20.40
2022-12-10T04:25:07.719Z,17.57
2022-12-10T04:27:35.070Z,18.23
2022-12-10T04:30:01.734Z,18.00
2022-12-10T04:32:29.040Z,20.27
2022-12-10T04:34:55.696Z,18.07
2022-12-10T04:37:22.217Z,19.87
2022-12-10T04:39:49.859Z,18.87
2022-12-10T04:42:16.393Z,18.17
2022-12-10T04:44:43.027Z,18.93
2022-12-10T04:47:09.671Z,18.00
2022-12-10T04:49:36.256Z,23.40
2022-12-10T04:52:02.846Z,20.23
2022-12-10T04:54:31.057Z,20.00
2022-12-10T04:57:00.726Z,20.73
2022-12-10T04:59:27.195Z,19.30
2022-12-10T05:01:53.745Z,20.67
2022-12-10T05:04:20.485Z,24.77
2022-12-10T05:06:48.496Z,21.13
2022-12-10T05:09:14.943Z,19.23
2022-12-10T05:11:41.712Z,20.97
2022-12-10T05:14:09.379Z,18.90
2022-12-10T05:16:35.885Z,21.33
2022-12-10T05:19:02.351Z,23.50
2022-12-10T05:21:48.998Z,22.87
2022-12-10T05:24:15.463Z,21.33
2022-12-10T05:26:42.010Z,21.33
2022-12-10T05:29:08.586Z,22.90
2022-12-10T05:31:35.060Z,19.27
2022-12-10T05:34:01.510Z,20.90
2022-12-10T05:36:29.676Z,22.93
2022-12-10T05:38:56.687Z,22.97
2022-12-10T05:41:27.388Z,21.03
2022-12-10T05:43:57.236Z,25.40
2022-12-10T05:46:24.490Z,19.73
2022-12-10T05:48:51.251Z,20.50
2022-12-10T05:51:24.816Z,20.10
2022-12-10T05:53:51.690Z,24.50
2022-12-10T05:56:19.420Z,27.87
2022-12-10T05:58:46.373Z,22.20
2022-12-10T06:01:20.273Z,22.70
2022-12-10T06:03:46.919Z,27.93
2022-12-10T06:06:13.530Z,24.30
2022-12-10T06:08:40.042Z,22.50
2022-12-10T06:11:07.102Z,27.30
2022-12-10T06:13:33.691Z,22.57
2022-12-10T06:16:00.383Z,20.53
2022-12-10T06:18:26.901Z,20.43
2022-12-10T06:20:53.418Z,24.93
2022-12-10T06:23:19.959Z,24.00
2022-12-10T06:25:46.422Z,25.73
2022-12-10T06:28:12.876Z,25.90
2022-12-10T06:30:39.323Z,20.33
2022-12-10T06:33:05.917Z,20.00
2022-12-10T06:35:32.385Z,25.97
2022-12-10T06:37:59.096Z,24.73
2022-12-10T06:40:25.563Z,26.20
2022-12-10T06:42:52.655Z,25.80
2022-12-10T06:45:19.087Z,26.50
2022-12-10T06:47:45.560Z,25.47
2022-12-10T06:50:12.058Z,25.97
2022-12-10T06:52:38.659Z,25.43
2022-12-10T06:55:05.380Z,22.43
2022-12-10T06:57:31.861Z,25.33
2022-12-10T06:59:58.298Z,21.37
2022-12-10T07:02:24.920Z,22.30
2022-12-10T07:04:51.673Z,22.00
2022-12-10T07:07:18.111Z,21.80
2022-12-10T07:09:44.694Z,20.67
2022-12-10T07:12:11.171Z,24.17
2022-12-10T07:14:37.595Z,22.47
2022-12-10T07:17:04.764Z,25.93
2022-12-10T07:19:31.236Z,23.73
2022-12-10T07:21:57.737Z,23.30
2022-12-10T07:24:24.282Z,24.33
2022-12-10T07:26:50.845Z,23.00
2022-12-10T07:29:18.122Z,23.47
2022-12-10T07:31:45.094Z,22.77
2022-12-10T07:34:11.653Z,22.00
2022-12-10T07:36:38.166Z,21.90
2022-12-10T07:39:06.157Z,21.53
2022-12-10T07:41:32.664Z,21.60
2022-12-10T07:43:59.124Z,25.63
2022-12-10T07:46:27.180Z,22.63
2022-12-10T07:48:53.770Z,24.63
2022-12-10T07:51:21.764Z,29.73
2022-12-10T07:53:48.641Z,27.37
2022-12-10T07:56:15.135Z,28.27
2022-12-10T07:58:42.165Z,28.00
2022-12-10T08:01:09.350Z,28.10
2022-12-10T08:03:35.890Z,25.37
2022-12-10T08:06:03.293Z,25.03
2022-12-10T08:08:29.857Z,37.73
2022-12-10T08:10:56.435Z,34.57
2022-12-10T08:13:22.898Z,33.87
2022-12-10T08:15:49.343Z,31.53
2022-12-10T08:18:15.857Z,33.77
2022-12-10T08:20:42.321Z,29.07
2022-12-10T08:23:08.823Z,28.57
2022-12-10T08:25:40.504Z,28.33
2022-12-10T08:28:07.258Z,31.60
2022-12-10T08:30:33.690Z,29.10
2022-12-10T08:33:00.216Z,32.03
2022-12-10T08:35:26.828Z,30.90
2022-12-10T08:37:53.294Z,27.93
2022-12-10T08:40:19.737Z,26.83
2022-12-10T08:42:46.205Z,30.13
2022-12-10T08:45:12.649Z,30.23
2022-12-10T08:47:39.253Z,33.10
2022-12-10T08:50:06.186Z,30.73
2022-12-10T08:52:32.967Z,30.80
2022-12-10T08:54:59.497Z,33.70
2022-12-10T08:57:26.057Z,33.90
2022-12-10T08:59:54.916Z,31.13
2022-12-10T09:02:21.516Z,30.90
2022-12-10T09:04:48.014Z,33.90
2022-12-10T09:07:14.432Z,32.67
2022-12-10T09:09:40.952Z,36.60
2022-12-10T09:12:07.414Z,28.83
2022-12-10T09:14:33.870Z,33.73
2022-12-10T09:17:00.325Z,32.67
2022-12-10T09:19:26.966Z,34.40
2022-12-10T09:21:53.571Z,34.57
2022-12-10T09:24:21.445Z,39.33
2022-12-10T09:26:50.241Z,35.73
2022-12-10T09:29:16.768Z,36.70
2022-12-10T09:31:43.998Z,37.10
2022-12-10T09:34:10.488Z,35.40
2022-12-10T09:36:36.971Z,39.03
2022-12-10T09:39:03.607Z,39.77
2022-12-10T09:41:48.792Z,40.00
2022-12-10T09:44:34.070Z,39.10
2022-12-10T09:47:01.466Z,39.93
2022-12-10T09:49:32.065Z,42.73
2022-12-10T09:51:59.210Z,43.57
2022-12-10T09:54:35.871Z,38.43
2022-12-10T09:57:02.361Z,40.57
2022-12-10T09:59:38.834Z,38.90
2022-12-10T10:02:25.297Z,40.63
2022-12-10T10:04:52.120Z,39.97
2022-12-10T10:07:20.875Z,43.03
2022-12-10T10:09:50.334Z,43.73
2022-12-10T10:12:16.955Z,45.13
2022-12-10T10:14:43.980Z,43.47
2022-12-10T10:17:12.070Z,48.43
2022-12-10T10:19:42.452Z,46.60
2022-12-10T10:22:09.450Z,45.43
2022-12-10T10:24:37.160Z,51.13
2022-12-10T10:27:23.880Z,53.73
2022-12-10T10:29:57.328Z,49.07
2022-12-10T10:32:25.847Z,56.03
